sensor_id;sensor_type;location;lat;lon;timestamp;pressure;altitude;pressure_sealevel;temperature;humidity
37206;BME280;23099;42.636;23.198;2022-12-13T00:00:04;91363.44;;;0.46;94.24
37206;BME280;23099;42.636;23.198;2022-12-13T00:02:32;91350.75;;;0.48;95.63
37206;BME280;23099;42.636;23.198;2022-12-13T00:04:59;91348.91;;;0.49;95.06
37206;BME280;23099;42.636;23.198;2022-12-13T00:07:26;91350.59;;;0.53;94.45
37206;BME280;23099;42.636;23.198;2022-12-13T00:09:54;91361.13;;;0.53;95.14
37206;BME280;23099;42.636;23.198;2022-12-13T00:12:20;91355.25;;;0.56;94.91
37206;BME280;23099;42.636;23.198;2022-12-13T00:14:47;91362.34;;;0.56;95.76
37206;BME280;23099;42.636;23.198;2022-12-13T00:17:14;91358.81;;;0.52;96.66
37206;BME280;23099;42.636;23.198;2022-12-13T00:19:41;91366.53;;;0.57;96.20
37206;BME280;23099;42.636;23.198;2022-12-13T00:22:07;91375.00;;;0.62;95.95
37206;BME280;23099;42.636;23.198;2022-12-13T00:24:34;91373.91;;;0.63;94.94
37206;BME280;23099;42.636;23.198;2022-12-13T00:27:02;91377.16;;;0.60;92.76
37206;BME280;23099;42.636;23.198;2022-12-13T00:29:29;91386.94;;;0.51;92.75
37206;BME280;23099;42.636;23.198;2022-12-13T00:31:56;91386.03;;;0.56;93.55
37206;BME280;23099;42.636;23.198;2022-12-13T00:34:23;91386.78;;;0.48;94.16
37206;BME280;23099;42.636;23.198;2022-12-13T00:36:52;91368.25;;;0.44;94.24
37206;BME280;23099;42.636;23.198;2022-12-13T00:39:18;91377.97;;;0.44;92.16
37206;BME280;23099;42.636;23.198;2022-12-13T00:41:45;91380.66;;;0.35;91.65
37206;BME280;23099;42.636;23.198;2022-12-13T00:44:14;91382.81;;;0.42;93.35
37206;BME280;23099;42.636;23.198;2022-12-13T00:46:41;91384.19;;;0.39;95.66
37206;BME280;23099;42.636;23.198;2022-12-13T00:49:08;91378.78;;;0.35;96.29
37206;BME280;23099;42.636;23.198;2022-12-13T00:51:36;91371.38;;;0.38;95.82
37206;BME280;23099;42.636;23.198;2022-12-13T00:54:02;91376.94;;;0.36;95.68
37206;BME280;23099;42.636;23.198;2022-12-13T00:56:30;91388.69;;;0.39;95.28
37206;BME280;23099;42.636;23.198;2022-12-13T00:58:57;91380.34;;;0.37;94.20
37206;BME280;23099;42.636;23.198;2022-12-13T01:01:28;91386.22;;;0.42;95.00
37206;BME280;23099;42.636;23.198;2022-12-13T01:03:57;91379.09;;;0.43;95.08
37206;BME280;23099;42.636;23.198;2022-12-13T01:06:28;91381.84;;;0.46;93.91
37206;BME280;23099;42.636;23.198;2022-12-13T01:08:58;91391.00;;;0.40;93.12
37206;BME280;23099;42.636;23.198;2022-12-13T01:11:25;91389.59;;;0.43;93.71
37206;BME280;23099;42.636;23.198;2022-12-13T01:13:52;91382.94;;;0.45;94.91
37206;BME280;23099;42.636;23.198;2022-12-13T01:16:18;91384.97;;;0.31;93.95
37206;BME280;23099;42.636;23.198;2022-12-13T01:18:46;91388.25;;;0.28;94.08
37206;BME280;23099;42.636;23.198;2022-12-13T01:21:15;91385.00;;;0.22;95.47
37206;BME280;23099;42.636;23.198;2022-12-13T01:23:43;91383.28;;;0.18;95.88
37206;BME280;23099;42.636;23.198;2022-12-13T01:26:12;91369.84;;;0.19;95.88
37206;BME280;23099;42.636;23.198;2022-12-13T01:28:38;91381.16;;;0.11;94.82
37206;BME280;23099;42.636;23.198;2022-12-13T01:31:07;91388.09;;;0.07;94.59
37206;BME280;23099;42.636;23.198;2022-12-13T01:33:34;91377.91;;;0.06;95.41
37206;BME280;23099;42.636;23.198;2022-12-13T01:36:05;91383.16;;;0.14;95.14
37206;BME280;23099;42.636;23.198;2022-12-13T01:38:33;91387.47;;;0.19;95.70
37206;BME280;23099;42.636;23.198;2022-12-13T01:40:59;91386.22;;;0.25;95.53
37206;BME280;23099;42.636;23.198;2022-12-13T01:43:28;91389.94;;;0.24;95.11
37206;BME280;23099;42.636;23.198;2022-12-13T01:45:55;91385.47;;;0.24;94.42
37206;BME280;23099;42.636;23.198;2022-12-13T01:48:26;91383.00;;;0.28;94.50
37206;BME280;23099;42.636;23.198;2022-12-13T01:50:57;91388.88;;;0.25;95.26
37206;BME280;23099;42.636;23.198;2022-12-13T01:53:29;91385.31;;;0.12;92.67
37206;BME280;23099;42.636;23.198;2022-12-13T01:56:02;91386.28;;;-0.01;93.65
37206;BME280;23099;42.636;23.198;2022-12-13T01:58:30;91386.72;;;0.01;94.76
37206;BME280;23099;42.636;23.198;2022-12-13T02:00:58;91386.28;;;-0.01;95.48
37206;BME280;23099;42.636;23.198;2022-12-13T02:03:25;91382.88;;;-0.02;94.46
37206;BME280;23099;42.636;23.198;2022-12-13T02:05:57;91391.81;;;0.06;94.63
37206;BME280;23099;42.636;23.198;2022-12-13T02:08:24;91390.28;;;0.05;94.39
37206;BME280;23099;42.636;23.198;2022-12-13T02:10:52;91386.25;;;-0.10;93.72
37206;BME280;23099;42.636;23.198;2022-12-13T02:13:19;91385.19;;;-0.09;93.22
37206;BME280;23099;42.636;23.198;2022-12-13T02:15:57;91387.19;;;-0.23;93.60
37206;BME280;23099;42.636;23.198;2022-12-13T02:18:39;91388.28;;;-0.32;94.24
37206;BME280;23099;42.636;23.198;2022-12-13T02:21:18;91389.97;;;-0.37;94.01
37206;BME280;23099;42.636;23.198;2022-12-13T02:27:01;91382.41;;;-0.47;95.54
37206;BME280;23099;42.636;23.198;2022-12-13T02:29:56;91387.97;;;-0.31;95.50
37206;BME280;23099;42.636;23.198;2022-12-13T02:32:29;91393.22;;;-0.31;95.81
37206;BME280;23099;42.636;23.198;2022-12-13T02:35:02;91401.22;;;-0.27;96.14
37206;BME280;23099;42.636;23.198;2022-12-13T02:37:39;91396.75;;;-0.27;94.40
37206;BME280;23099;42.636;23.198;2022-12-13T02:40:11;91396.16;;;-0.24;94.91
37206;BME280;23099;42.636;23.198;2022-12-13T02:42:46;91393.22;;;-0.31;93.83
37206;BME280;23099;42.636;23.198;2022-12-13T02:45:18;91397.84;;;-0.28;94.28
37206;BME280;23099;42.636;23.198;2022-12-13T02:47:49;91387.03;;;-0.35;92.36
37206;BME280;23099;42.636;23.198;2022-12-13T02:50:19;91392.28;;;-0.35;91.47
37206;BME280;23099;42.636;23.198;2022-12-13T02:52:46;91390.41;;;-0.43;91.21
37206;BME280;23099;42.636;23.198;2022-12-13T02:55:15;91392.59;;;-0.45;93.29
37206;BME280;23099;42.636;23.198;2022-12-13T02:57:44;91400.91;;;-0.43;92.80
37206;BME280;23099;42.636;23.198;2022-12-13T03:00:15;91395.06;;;-0.40;93.07
37206;BME280;23099;42.636;23.198;2022-12-13T03:02:57;91400.78;;;-0.47;93.26
37206;BME280;23099;42.636;23.198;2022-12-13T03:05:31;91399.84;;;-0.59;91.98
37206;BME280;23099;42.636;23.198;2022-12-13T03:08:21;91398.28;;;-0.60;91.68
37206;BME280;23099;42.636;23.198;2022-12-13T03:10:55;91391.16;;;-0.68;91.96
37206;BME280;23099;42.636;23.198;2022-12-13T03:13:30;91403.31;;;-0.90;92.45
37206;BME280;23099;42.636;23.198;2022-12-13T03:16:09;91397.72;;;-0.97;92.86
37206;BME280;23099;42.636;23.198;2022-12-13T03:18:39;91394.78;;;-1.04;92.98
37206;BME280;23099;42.636;23.198;2022-12-13T03:21:08;91398.50;;;-0.96;94.58
37206;BME280;23099;42.636;23.198;2022-12-13T03:23:36;91396.69;;;-0.87;94.42
37206;BME280;23099;42.636;23.198;2022-12-13T03:26:06;91393.13;;;-0.83;93.77
37206;BME280;23099;42.636;23.198;2022-12-13T03:28:35;91387.28;;;-0.80;94.00
37206;BME280;23099;42.636;23.198;2022-12-13T03:31:01;91399.31;;;-0.70;94.19
37206;BME280;23099;42.636;23.198;2022-12-13T03:33:28;91392.38;;;-0.75;93.49
37206;BME280;23099;42.636;23.198;2022-12-13T03:35:56;91399.63;;;-0.72;92.97
37206;BME280;23099;42.636;23.198;2022-12-13T03:38:23;91392.97;;;-0.86;91.23
37206;BME280;23099;42.636;23.198;2022-12-13T03:40:56;91388.47;;;-1.03;91.94
37206;BME280;23099;42.636;23.198;2022-12-13T03:43:25;91395.84;;;-1.05;92.22
37206;BME280;23099;42.636;23.198;2022-12-13T03:45:52;91399.72;;;-1.02;92.41
37206;BME280;23099;42.636;23.198;2022-12-13T03:48:20;91401.09;;;-1.05;92.79
37206;BME280;23099;42.636;23.198;2022-12-13T03:50:46;91399.09;;;-0.99;93.06
37206;BME280;23099;42.636;23.198;2022-12-13T03:53:15;91419.19;;;-0.95;92.57
37206;BME280;23099;42.636;23.198;2022-12-13T03:55:41;91415.59;;;-0.99;92.82
37206;BME280;23099;42.636;23.198;2022-12-13T03:58:08;91421.44;;;-1.11;92.07
37206;BME280;23099;42.636;23.198;2022-12-13T04:00:35;91420.06;;;-1.08;91.32
37206;BME280;23099;42.636;23.198;2022-12-13T04:03:01;91417.25;;;-1.12;91.29
37206;BME280;23099;42.636;23.198;2022-12-13T04:05:28;91430.34;;;-1.20;91.19
37206;BME280;23099;42.636;23.198;2022-12-13T04:07:55;91429.75;;;-1.17;91.79
37206;BME280;23099;42.636;23.198;2022-12-13T04:10:23;91427.53;;;-1.55;91.25
37206;BME280;23099;42.636;23.198;2022-12-13T04:12:51;91438.09;;;-1.46;91.84
37206;BME280;23099;42.636;23.198;2022-12-13T04:15:35;91435.09;;;-1.53;92.63
37206;BME280;23099;42.636;23.198;2022-12-13T04:18:02;91437.09;;;-1.59;91.58
37206;BME280;23099;42.636;23.198;2022-12-13T04:20:29;91443.25;;;-1.55;92.27
37206;BME280;23099;42.636;23.198;2022-12-13T04:22:57;91454.00;;;-1.65;92.61
37206;BME280;23099;42.636;23.198;2022-12-13T04:25:26;91446.03;;;-1.60;92.14
37206;BME280;23099;42.636;23.198;2022-12-13T04:27:52;91452.66;;;-1.54;93.85
37206;BME280;23099;42.636;23.198;2022-12-13T04:30:19;91454.09;;;-1.48;94.45
37206;BME280;23099;42.636;23.198;2022-12-13T04:32:46;91462.78;;;-1.38;95.20
37206;BME280;23099;42.636;23.198;2022-12-13T04:35:13;91465.06;;;-1.46;93.98
37206;BME280;23099;42.636;23.198;2022-12-13T04:37:39;91469.94;;;-1.30;94.93
37206;BME280;23099;42.636;23.198;2022-12-13T04:40:07;91463.75;;;-1.34;93.21
37206;BME280;23099;42.636;23.198;2022-12-13T04:42:35;91472.56;;;-1.30;94.25
37206;BME280;23099;42.636;23.198;2022-12-13T04:45:03;91465.00;;;-1.32;93.51
37206;BME280;23099;42.636;23.198;2022-12-13T04:47:30;91450.66;;;-1.57;92.56
37206;BME280;23099;42.636;23.198;2022-12-13T04:49:56;91475.72;;;-1.42;92.80
37206;BME280;23099;42.636;23.198;2022-12-13T04:52:23;91471.00;;;-1.31;93.74
37206;BME280;23099;42.636;23.198;2022-12-13T04:54:50;91469.97;;;-1.22;94.78
37206;BME280;23099;42.636;23.198;2022-12-13T04:57:17;91475.38;;;-1.18;94.76
37206;BME280;23099;42.636;23.198;2022-12-13T04:59:45;91478.50;;;-1.16;94.64
37206;BME280;23099;42.636;23.198;2022-12-13T05:02:11;91476.19;;;-1.09;94.57
37206;BME280;23099;42.636;23.198;2022-12-13T05:04:38;91479.41;;;-1.12;93.32
37206;BME280;23099;42.636;23.198;2022-12-13T05:07:05;91480.25;;;-1.03;93.70
37206;BME280;23099;42.636;23.198;2022-12-13T05:09:32;91474.38;;;-1.00;94.04
37206;BME280;23099;42.636;23.198;2022-12-13T05:11:59;91444.25;;;-1.11;93.12
37206;BME280;23099;42.636;23.198;2022-12-13T05:14:25;91480.44;;;-0.91;91.63
37206;BME280;23099;42.636;23.198;2022-12-13T05:16:53;91479.69;;;-0.83;91.86
37206;BME280;23099;42.636;23.198;2022-12-13T05:19:20;91484.34;;;-0.80;92.25
37206;BME280;23099;42.636;23.198;2022-12-13T05:21:47;91489.13;;;-0.82;93.84
37206;BME280;23099;42.636;23.198;2022-12-13T05:24:14;91487.88;;;-0.84;94.91
37206;BME280;23099;42.636;23.198;2022-12-13T05:26:41;91492.34;;;-0.85;94.95
37206;BME280;23099;42.636;23.198;2022-12-13T05:29:07;91490.53;;;-0.76;94.43
37206;BME280;23099;42.636;23.198;2022-12-13T05:31:34;91488.41;;;-0.65;93.74
37206;BME280;23099;42.636;23.198;2022-12-13T05:34:02;91487.50;;;-0.60;92.37
37206;BME280;23099;42.636;23.198;2022-12-13T05:36:29;91498.00;;;-0.60;92.62
37206;BME280;23099;42.636;23.198;2022-12-13T05:38:56;91509.75;;;-0.58;92.45
37206;BME280;23099;42.636;23.198;2022-12-13T05:41:23;91502.59;;;-0.75;90.19
37206;BME280;23099;42.636;23.198;2022-12-13T05:43:53;91500.56;;;-0.78;91.10
37206;BME280;23099;42.636;23.198;2022-12-13T05:46:19;91507.34;;;-0.77;92.10
37206;BME280;23099;42.636;23.198;2022-12-13T05:48:46;91511.06;;;-0.78;93.47
37206;BME280;23099;42.636;23.198;2022-12-13T05:51:14;91510.09;;;-0.90;93.48
37206;BME280;23099;42.636;23.198;2022-12-13T05:53:41;91519.13;;;-0.96;92.14
37206;BME280;23099;42.636;23.198;2022-12-13T05:56:09;91522.22;;;-1.03;90.71
37206;BME280;23099;42.636;23.198;2022-12-13T05:58:37;91528.22;;;-1.02;91.68
37206;BME280;23099;42.636;23.198;2022-12-13T06:01:05;91525.28;;;-1.01;92.36
37206;BME280;23099;42.636;23.198;2022-12-13T06:03:32;91531.97;;;-0.95;91.33
37206;BME280;23099;42.636;23.198;2022-12-13T06:06:00;91530.88;;;-0.94;91.24
37206;BME280;23099;42.636;23.198;2022-12-13T06:08:28;91530.88;;;-0.94;89.53
37206;BME280;23099;42.636;23.198;2022-12-13T06:10:56;91532.44;;;-0.93;89.25
37206;BME280;23099;42.636;23.198;2022-12-13T06:13:22;91537.81;;;-0.98;89.46
37206;BME280;23099;42.636;23.198;2022-12-13T06:15:49;91526.88;;;-0.91;89.86
37206;BME280;23099;42.636;23.198;2022-12-13T06:18:16;91531.66;;;-0.93;89.57
37206;BME280;23099;42.636;23.198;2022-12-13T06:20:43;91530.75;;;-0.89;88.76
37206;BME280;23099;42.636;23.198;2022-12-13T06:23:11;91534.75;;;-0.91;88.96
37206;BME280;23099;42.636;23.198;2022-12-13T06:25:40;91524.22;;;-1.00;86.83
37206;BME280;23099;42.636;23.198;2022-12-13T06:28:07;91533.00;;;-1.04;86.89
37206;BME280;23099;42.636;23.198;2022-12-13T06:30:34;91532.44;;;-1.15;89.69
37206;BME280;23099;42.636;23.198;2022-12-13T06:33:00;91533.78;;;-1.04;90.61
37206;BME280;23099;42.636;23.198;2022-12-13T06:35:27;91535.47;;;-0.99;90.65
37206;BME280;23099;42.636;23.198;2022-12-13T06:37:54;91543.53;;;-0.96;90.18
37206;BME280;23099;42.636;23.198;2022-12-13T06:40:21;91550.63;;;-0.96;89.23
37206;BME280;23099;42.636;23.198;2022-12-13T06:42:49;91544.47;;;-0.92;90.29
37206;BME280;23099;42.636;23.198;2022-12-13T06:45:16;91550.44;;;-1.00;87.77
37206;BME280;23099;42.636;23.198;2022-12-13T06:47:42;91534.09;;;-0.97;88.67
37206;BME280;23099;42.636;23.198;2022-12-13T06:50:09;91548.28;;;-0.98;89.22
37206;BME280;23099;42.636;23.198;2022-12-13T06:52:36;91537.97;;;-0.94;89.48
37206;BME280;23099;42.636;23.198;2022-12-13T06:55:03;91542.19;;;-0.85;87.60
37206;BME280;23099;42.636;23.198;2022-12-13T06:57:31;91532.13;;;-0.91;87.52
37206;BME280;23099;42.636;23.198;2022-12-13T06:59:59;91543.44;;;-0.82;88.71
37206;BME280;23099;42.636;23.198;2022-12-13T07:02:27;91533.13;;;-0.79;88.83
37206;BME280;23099;42.636;23.198;2022-12-13T07:04:55;91541.50;;;-0.68;90.37
37206;BME280;23099;42.636;23.198;2022-12-13T07:07:22;91546.03;;;-0.60;90.36
37206;BME280;23099;42.636;23.198;2022-12-13T07:09:50;91542.94;;;-0.53;89.39
37206;BME280;23099;42.636;23.198;2022-12-13T07:12:16;91545.75;;;-0.50;88.79
37206;BME280;23099;42.636;23.198;2022-12-13T07:14:45;91546.81;;;-0.51;87.82
37206;BME280;23099;42.636;23.198;2022-12-13T07:17:13;91561.03;;;-0.43;88.81
37206;BME280;23099;42.636;23.198;2022-12-13T07:19:40;91558.75;;;-0.45;81.90
37206;BME280;23099;42.636;23.198;2022-12-13T07:22:06;91562.59;;;-0.42;83.27
37206;BME280;23099;42.636;23.198;2022-12-13T07:24:33;91563.53;;;-0.38;84.33
37206;BME280;23099;42.636;23.198;2022-12-13T07:27:00;91560.91;;;-0.38;85.32
37206;BME280;23099;42.636;23.198;2022-12-13T07:29:27;91568.31;;;-0.40;84.43
37206;BME280;23099;42.636;23.198;2022-12-13T07:31:54;91569.84;;;-0.48;84.02
37206;BME280;23099;42.636;23.198;2022-12-13T07:34:22;91560.44;;;-0.40;86.50
37206;BME280;23099;42.636;23.198;2022-12-13T07:36:49;91558.75;;;-0.36;87.59
37206;BME280;23099;42.636;23.198;2022-12-13T07:39:16;91561.09;;;-0.34;87.47
37206;BME280;23099;42.636;23.198;2022-12-13T07:41:42;91559.84;;;-0.28;85.62
37206;BME280;23099;42.636;23.198;2022-12-13T07:44:09;91541.34;;;-0.32;86.56
37206;BME280;23099;42.636;23.198;2022-12-13T07:46:36;91569.63;;;-0.12;85.92
37206;BME280;23099;42.636;23.198;2022-12-13T07:49:04;91568.59;;;-0.02;85.21
37206;BME280;23099;42.636;23.198;2022-12-13T07:51:33;91564.91;;;0.08;86.26
37206;BME280;23099;42.636;23.198;2022-12-13T07:54:00;91562.75;;;0.10;85.34
37206;BME280;23099;42.636;23.198;2022-12-13T07:56:27;91563.53;;;0.10;84.60
37206;BME280;23099;42.636;23.198;2022-12-13T07:58:54;91574.03;;;0.19;85.54
37206;BME280;23099;42.636;23.198;2022-12-13T08:01:21;91572.66;;;0.21;85.75
37206;BME280;23099;42.636;23.198;2022-12-13T08:03:49;91571.28;;;0.24;85.85
37206;BME280;23099;42.636;23.198;2022-12-13T08:06:16;91568.66;;;0.32;85.00
37206;BME280;23099;42.636;23.198;2022-12-13T08:08:45;91572.03;;;0.33;83.51
37206;BME280;23099;42.636;23.198;2022-12-13T08:11:14;91574.84;;;0.28;81.32
37206;BME280;23099;42.636;23.198;2022-12-13T08:13:41;91578.38;;;0.32;81.25
37206;BME280;23099;42.636;23.198;2022-12-13T08:16:10;91577.00;;;0.34;82.74
37206;BME280;23099;42.636;23.198;2022-12-13T08:18:37;91579.00;;;0.46;81.52
37206;BME280;23099;42.636;23.198;2022-12-13T08:21:05;91582.44;;;0.55;80.99
37206;BME280;23099;42.636;23.198;2022-12-13T08:23:33;91587.22;;;0.62;79.05
37206;BME280;23099;42.636;23.198;2022-12-13T08:26:03;91584.44;;;0.67;78.65
37206;BME280;23099;42.636;23.198;2022-12-13T08:28:32;91569.00;;;0.57;79.04
37206;BME280;23099;42.636;23.198;2022-12-13T08:31:02;91574.84;;;0.45;78.90
37206;BME280;23099;42.636;23.198;2022-12-13T08:33:29;91574.38;;;0.60;80.14
37206;BME280;23099;42.636;23.198;2022-12-13T08:35:56;91568.97;;;0.74;79.16
37206;BME280;23099;42.636;23.198;2022-12-13T08:38:23;91569.13;;;0.95;79.53
37206;BME280;23099;42.636;23.198;2022-12-13T08:40:49;91566.47;;;1.12;75.90
37206;BME280;23099;42.636;23.198;2022-12-13T08:43:18;91555.72;;;1.34;77.86
37206;BME280;23099;42.636;23.198;2022-12-13T08:45:44;91560.31;;;1.55;78.15
37206;BME280;23099;42.636;23.198;2022-12-13T08:48:11;91552.09;;;1.56;79.53
37206;BME280;23099;42.636;23.198;2022-12-13T08:50:38;91558.94;;;1.49;75.61
37206;BME280;23099;42.636;23.198;2022-12-13T08:53:04;91550.50;;;1.64;73.03
37206;BME280;23099;42.636;23.198;2022-12-13T08:55:31;91547.41;;;1.70;74.04
37206;BME280;23099;42.636;23.198;2022-12-13T08:58:02;91548.16;;;1.71;72.58
37206;BME280;23099;42.636;23.198;2022-12-13T09:00:33;91543.22;;;1.61;70.72
37206;BME280;23099;42.636;23.198;2022-12-13T09:03:00;91541.81;;;1.72;71.17
37206;BME280;23099;42.636;23.198;2022-12-13T09:05:28;91541.63;;;1.77;71.84
37206;BME280;23099;42.636;23.198;2022-12-13T09:07:55;91539.75;;;1.77;72.73
37206;BME280;23099;42.636;23.198;2022-12-13T09:10:22;91531.16;;;1.89;72.86
37206;BME280;23099;42.636;23.198;2022-12-13T09:12:50;91532.31;;;2.09;72.48
37206;BME280;23099;42.636;23.198;2022-12-13T09:15:17;91522.75;;;2.25;71.96
37206;BME280;23099;42.636;23.198;2022-12-13T09:17:45;91518.19;;;2.34;68.68
37206;BME280;23099;42.636;23.198;2022-12-13T09:20:12;91513.16;;;2.21;68.69
37206;BME280;23099;42.636;23.198;2022-12-13T09:22:39;91517.13;;;2.06;70.71
37206;BME280;23099;42.636;23.198;2022-12-13T09:25:06;91505.88;;;2.18;68.94
37206;BME280;23099;42.636;23.198;2022-12-13T09:27:33;91512.50;;;2.03;68.96
37206;BME280;23099;42.636;23.198;2022-12-13T09:30:00;91507.28;;;1.94;70.38
37206;BME280;23099;42.636;23.198;2022-12-13T09:32:27;91502.28;;;2.01;72.44
37206;BME280;23099;42.636;23.198;2022-12-13T09:34:55;91503.78;;;2.11;69.77
37206;BME280;23099;42.636;23.198;2022-12-13T09:37:22;91506.44;;;2.02;68.61
37206;BME280;23099;42.636;23.198;2022-12-13T09:39:49;91508.53;;;1.88;68.93
37206;BME280;23099;42.636;23.198;2022-12-13T09:42:20;91501.69;;;1.96;73.06
37206;BME280;23099;42.636;23.198;2022-12-13T09:44:50;91504.72;;;1.77;71.96
37206;BME280;23099;42.636;23.198;2022-12-13T09:47:28;91502.78;;;1.65;70.40
37206;BME280;23099;42.636;23.198;2022-12-13T09:49:58;91499.22;;;1.70;71.53
37206;BME280;23099;42.636;23.198;2022-12-13T09:52:28;91505.34;;;1.83;71.45
37206;BME280;23099;42.636;23.198;2022-12-13T09:54:59;91502.84;;;1.86;71.58
37206;BME280;23099;42.636;23.198;2022-12-13T09:57:27;91506.97;;;1.96;72.33
37206;BME280;23099;42.636;23.198;2022-12-13T09:59:54;91497.66;;;2.19;70.55
37206;BME280;23099;42.636;23.198;2022-12-13T10:02:23;91493.75;;;2.46;70.75
37206;BME280;23099;42.636;23.198;2022-12-13T10:04:50;91493.88;;;2.49;67.01
37206;BME280;23099;42.636;23.198;2022-12-13T10:07:20;91495.50;;;2.42;67.87
37206;BME280;23099;42.636;23.198;2022-12-13T10:09:51;91496.59;;;2.41;65.30
37206;BME280;23099;42.636;23.198;2022-12-13T10:12:20;91490.09;;;2.38;68.44
37206;BME280;23099;42.636;23.198;2022-12-13T10:14:50;91494.50;;;2.67;68.01
37206;BME280;23099;42.636;23.198;2022-12-13T10:17:22;91482.66;;;2.73;68.00
37206;BME280;23099;42.636;23.198;2022-12-13T10:19:51;91484.03;;;2.59;63.28
37206;BME280;23099;42.636;23.198;2022-12-13T10:22:20;91487.81;;;2.49;64.04
37206;BME280;23099;42.636;23.198;2022-12-13T10:24:50;91492.38;;;2.61;65.42
37206;BME280;23099;42.636;23.198;2022-12-13T10:27:19;91483.44;;;2.53;63.60
37206;BME280;23099;42.636;23.198;2022-12-13T10:29:58;91481.03;;;2.27;64.96
37206;BME280;23099;42.636;23.198;2022-12-13T10:32:26;91466.22;;;2.35;66.23
37206;BME280;23099;42.636;23.198;2022-12-13T10:34:53;91471.34;;;2.52;66.08
37206;BME280;23099;42.636;23.198;2022-12-13T10:37:28;91462.19;;;2.70;67.43
37206;BME280;23099;42.636;23.198;2022-12-13T10:39:55;91463.94;;;2.99;61.86
37206;BME280;23099;42.636;23.198;2022-12-13T10:42:22;91440.09;;;3.20;62.85
37206;BME280;23099;42.636;23.198;2022-12-13T10:45:08;91451.59;;;3.61;62.57
37206;BME280;23099;42.636;23.198;2022-12-13T10:47:36;91455.09;;;3.65;62.59
37206;BME280;23099;42.636;23.198;2022-12-13T10:50:03;91448.63;;;3.74;61.43
37206;BME280;23099;42.636;23.198;2022-12-13T10:52:33;91439.53;;;4.12;61.17
37206;BME280;23099;42.636;23.198;2022-12-13T10:55:02;91450.16;;;4.40;58.75
37206;BME280;23099;42.636;23.198;2022-12-13T10:57:30;91436.44;;;4.10;62.34
37206;BME280;23099;42.636;23.198;2022-12-13T10:59:57;91432.81;;;3.90;62.56
37206;BME280;23099;42.636;23.198;2022-12-13T11:02:31;91434.38;;;4.03;60.94
37206;BME280;23099;42.636;23.198;2022-12-13T11:05:01;91441.47;;;4.27;59.21
37206;BME280;23099;42.636;23.198;2022-12-13T11:07:42;91438.53;;;4.56;57.14
37206;BME280;23099;42.636;23.198;2022-12-13T11:10:19;91431.69;;;4.83;59.98
37206;BME280;23099;42.636;23.198;2022-12-13T11:12:48;91422.75;;;5.04;55.33
37206;BME280;23099;42.636;23.198;2022-12-13T11:15:16;91413.44;;;5.25;57.20
37206;BME280;23099;42.636;23.198;2022-12-13T11:17:47;91407.53;;;5.63;57.64
37206;BME280;23099;42.636;23.198;2022-12-13T11:20:18;91410.47;;;5.90;54.18
37206;BME280;23099;42.636;23.198;2022-12-13T11:22:48;91411.28;;;5.78;54.78
37206;BME280;23099;42.636;23.198;2022-12-13T11:25:21;91406.41;;;5.80;56.41
37206;BME280;23099;42.636;23.198;2022-12-13T11:27:59;91407.81;;;5.90;53.46
37206;BME280;23099;42.636;23.198;2022-12-13T11:30:35;91410.13;;;6.11;54.66
37206;BME280;23099;42.636;23.198;2022-12-13T11:33:16;91420.03;;;6.29;55.08
37206;BME280;23099;42.636;23.198;2022-12-13T11:36:02;91422.28;;;6.47;52.80
37206;BME280;23099;42.636;23.198;2022-12-13T11:38:43;91425.34;;;6.49;52.39
37206;BME280;23099;42.636;23.198;2022-12-13T11:41:20;91427.94;;;6.45;52.44
37206;BME280;23099;42.636;23.198;2022-12-13T11:43:51;91417.66;;;6.44;52.14
37206;BME280;23099;42.636;23.198;2022-12-13T11:46:28;91406.78;;;6.49;52.42
37206;BME280;23099;42.636;23.198;2022-12-13T11:49:03;91405.06;;;6.79;52.20
37206;BME280;23099;42.636;23.198;2022-12-13T11:51:40;91421.91;;;6.67;52.38
37206;BME280;23099;42.636;23.198;2022-12-13T11:54:15;91408.66;;;6.67;51.77
37206;BME280;23099;42.636;23.198;2022-12-13T11:56:46;91413.59;;;6.69;52.54
37206;BME280;23099;42.636;23.198;2022-12-13T11:59:23;91422.84;;;6.75;51.42
37206;BME280;23099;42.636;23.198;2022-12-13T12:01:59;91405.09;;;6.41;51.57
37206;BME280;23099;42.636;23.198;2022-12-13T12:04:34;91406.25;;;6.24;53.46
37206;BME280;23099;42.636;23.198;2022-12-13T12:07:08;91408.22;;;5.92;52.14
37206;BME280;23099;42.636;23.198;2022-12-13T12:09:41;91417.47;;;5.66;54.20
37206;BME280;23099;42.636;23.198;2022-12-13T12:12:13;91418.66;;;5.38;53.08
37206;BME280;23099;42.636;23.198;2022-12-13T12:14:47;91411.41;;;5.19;57.25
37206;BME280;23099;42.636;23.198;2022-12-13T12:17:19;91411.38;;;4.87;56.21
37206;BME280;23099;42.636;23.198;2022-12-13T12:19:51;91407.91;;;4.71;55.49
37206;BME280;23099;42.636;23.198;2022-12-13T12:22:28;91410.66;;;4.47;59.26
37206;BME280;23099;42.636;23.198;2022-12-13T12:25:17;91401.72;;;4.11;62.06
37206;BME280;23099;42.636;23.198;2022-12-13T12:27:53;91404.88;;;3.77;62.92
37206;BME280;23099;42.636;23.198;2022-12-13T12:30:34;91407.84;;;3.63;63.62
37206;BME280;23099;42.636;23.198;2022-12-13T12:33:10;91412.50;;;3.54;64.36
37206;BME280;23099;42.636;23.198;2022-12-13T12:35:54;91410.19;;;3.40;66.04
37206;BME280;23099;42.636;23.198;2022-12-13T12:41:44;91413.22;;;3.06;64.43
37206;BME280;23099;42.636;23.198;2022-12-13T12:44:22;91419.44;;;2.77;69.65
37206;BME280;23099;42.636;23.198;2022-12-13T12:47:01;91419.53;;;2.68;71.58
37206;BME280;23099;42.636;23.198;2022-12-13T12:52:36;91430.50;;;2.58;70.73
37206;BME280;23099;42.636;23.198;2022-12-13T12:55:11;91440.47;;;2.53;72.24
37206;BME280;23099;42.636;23.198;2022-12-13T12:57:49;91445.84;;;2.44;71.87
37206;BME280;23099;42.636;23.198;2022-12-13T13:00:20;91445.00;;;2.31;72.73
37206;BME280;23099;42.636;23.198;2022-12-13T13:02:48;91449.88;;;2.21;72.44
37206;BME280;23099;42.636;23.198;2022-12-13T13:05:22;91448.56;;;2.15;71.23
37206;BME280;23099;42.636;23.198;2022-12-13T13:07:54;91466.34;;;2.18;71.50
37206;BME280;23099;42.636;23.198;2022-12-13T13:10:24;91455.69;;;2.14;73.86
37206;BME280;23099;42.636;23.198;2022-12-13T13:12:53;91464.69;;;2.13;71.25
37206;BME280;23099;42.636;23.198;2022-12-13T13:18:44;91480.47;;;1.92;76.92